Time;durP1;ratioP1;P1;durP2;ratioP2;P2;SDS_P1;SDS_P2;PMS_P1;PMS_P2;Temp;Humidity;BMP_temperature;BMP_pressure;BME280_temperature;BME280_humidity;BME280_pressure;Samples;Min_cycle;Max_cycle;Signal;HPM_P1;HPM_P2
2021/07/03 00:01:15;;;;;;;37.80;31.50;;;13.80;99.90;;;;;;5083688;28;20474;-73
2021/07/03 00:03:42;;;;;;;40.10;32.70;;;13.80;99.90;;;;;;5085830;28;20580;-72
2021/07/03 00:06:09;;;;;;;35.73;31.90;;;13.80;99.90;;;;;;5086440;28;20462;-73
2021/07/03 00:08:36;;;;;;;39.60;35.50;;;13.70;99.90;;;;;;5087666;28;20466;-78
2021/07/03 00:11:06;;;;;;;36.10;32.37;;;13.70;99.90;;;;;;5084451;28;20573;-74
2021/07/03 00:13:35;;;;;;;36.57;32.53;;;13.60;99.90;;;;;;5084580;28;20457;-76
2021/07/03 00:16:03;;;;;;;35.60;31.67;;;13.60;99.90;;;;;;5079792;28;20454;-73
2021/07/03 00:18:30;;;;;;;38.10;30.70;;;13.60;99.90;;;;;;5086248;28;20458;-73
2021/07/03 00:20:58;;;;;;;36.30;32.70;;;13.50;99.90;;;;;;5080882;28;20476;-77
2021/07/03 00:23:25;;;;;;;36.77;32.07;;;13.50;99.90;;;;;;5085982;28;20576;-73
2021/07/03 00:25:52;;;;;;;36.90;31.37;;;13.40;99.90;;;;;;5087980;28;20576;-75
2021/07/03 00:28:19;;;;;;;38.57;34.83;;;13.40;99.90;;;;;;5084479;28;20491;-75
2021/07/03 00:30:48;;;;;;;40.40;32.47;;;13.40;99.90;;;;;;5082209;28;20464;-76
2021/07/03 00:33:14;;;;;;;37.33;33.63;;;13.40;99.90;;;;;;5084944;28;20477;-73
2021/07/03 00:35:41;;;;;;;39.20;34.30;;;13.40;99.90;;;;;;5086509;28;20454;-74
2021/07/03 00:38:08;;;;;;;39.30;35.13;;;13.30;99.90;;;;;;5086607;28;20466;-73
2021/07/03 00:40:36;;;;;;;44.20;34.43;;;13.30;99.90;;;;;;5082902;28;21029;-73
2021/07/03 00:43:03;;;;;;;35.50;32.00;;;13.20;99.90;;;;;;5081389;28;20455;-73
2021/07/03 00:45:30;;;;;;;36.50;32.77;;;13.20;99.90;;;;;;5085504;28;20490;-75
2021/07/03 00:47:59;;;;;;;34.70;31.03;;;13.20;99.90;;;;;;5082353;28;20981;-73
2021/07/03 00:50:26;;;;;;;39.17;35.07;;;13.10;99.90;;;;;;5084375;28;20465;-75
2021/07/03 00:52:53;;;;;;;37.03;32.07;;;13.10;99.90;;;;;;5084462;28;20461;-73
2021/07/03 00:55:20;;;;;;;39.20;32.30;;;13.00;99.90;;;;;;5080323;28;20865;-75
2021/07/03 00:57:48;;;;;;;35.33;31.53;;;13.00;99.90;;;;;;5084117;28;20454;-73
2021/07/03 01:00:17;;;;;;;35.90;32.17;;;13.00;99.90;;;;;;5082064;28;20950;-76
2021/07/03 01:02:44;;;;;;;36.20;31.17;;;13.00;99.90;;;;;;5074972;28;20481;-74
2021/07/03 01:05:12;;;;;;;37.30;33.40;;;13.00;99.90;;;;;;5087604;28;20484;-73
2021/07/03 01:07:41;;;;;;;35.43;31.67;;;13.00;99.90;;;;;;5086422;28;20460;-73
2021/07/03 01:10:20;;;;;;;39.90;35.90;;;12.90;99.90;;;;;;5088112;28;21085;-74
2021/07/03 01:12:50;;;;;;;35.97;31.60;;;12.90;99.90;;;;;;5089425;28;20469;-75
2021/07/03 01:15:17;;;;;;;36.40;32.70;;;12.80;99.90;;;;;;5087201;28;20511;-73
2021/07/03 01:17:44;;;;;;;40.53;31.97;;;12.80;99.90;;;;;;5090293;28;21022;-73
2021/07/03 01:20:14;;;;;;;34.63;30.90;;;12.80;99.90;;;;;;5089474;28;20473;-73
2021/07/03 01:22:45;;;;;;;38.53;33.10;;;12.70;99.90;;;;;;5088595;28;20469;-73
2021/07/03 01:25:14;;;;;;;37.07;29.90;;;12.60;99.90;;;;;;5088241;28;20851;-73
2021/07/03 01:27:41;;;;;;;53.13;33.00;;;12.60;99.90;;;;;;5085889;28;20819;-76
2021/07/03 01:30:10;;;;;;;35.30;31.30;;;12.70;99.90;;;;;;5086536;28;20542;-72
2021/07/03 01:32:38;;;;;;;37.37;30.37;;;12.70;99.90;;;;;;5083303;28;20472;-75
2021/07/03 01:35:06;;;;;;;38.70;32.83;;;12.60;99.90;;;;;;5080768;28;20473;-76
2021/07/03 01:37:33;;;;;;;36.07;32.30;;;12.60;99.90;;;;;;5089286;28;20861;-72
2021/07/03 01:40:01;;;;;;;39.10;32.47;;;12.70;99.90;;;;;;5087573;28;20466;-74
2021/07/03 01:42:28;;;;;;;37.77;32.03;;;12.70;99.90;;;;;;5083714;28;20453;-76
2021/07/03 01:44:56;;;;;;;45.97;33.73;;;12.60;99.90;;;;;;5081155;28;20470;-75
2021/07/03 01:47:23;;;;;;;39.90;32.90;;;12.60;99.90;;;;;;5090404;28;20469;-77
2021/07/03 01:49:50;;;;;;;41.47;31.00;;;12.60;99.90;;;;;;5083952;28;20497;-73
2021/07/03 01:52:18;;;;;;;37.50;33.20;;;12.50;99.90;;;;;;5085905;28;20490;-75
2021/07/03 01:54:44;;;;;;;40.17;33.90;;;12.50;99.90;;;;;;5086714;28;20497;-74
2021/07/03 01:57:13;;;;;;;39.83;33.43;;;12.50;99.90;;;;;;5085260;28;20457;-76
2021/07/03 01:59:40;;;;;;;42.13;33.97;;;12.50;99.90;;;;;;5086024;28;20458;-73
2021/07/03 02:02:07;;;;;;;45.30;33.33;;;12.50;99.90;;;;;;5085963;28;20485;-73
2021/07/03 02:04:34;;;;;;;40.07;34.07;;;12.60;99.90;;;;;;5088851;28;20805;-77
2021/07/03 02:07:01;;;;;;;36.23;32.30;;;12.50;99.90;;;;;;5087826;28;20874;-72
2021/07/03 02:09:28;;;;;;;53.57;34.80;;;12.50;99.90;;;;;;5087732;28;20450;-74
2021/07/03 02:11:54;;;;;;;43.67;34.63;;;12.40;99.90;;;;;;5078345;28;20467;-77
2021/07/03 02:14:23;;;;;;;45.10;33.70;;;12.40;99.90;;;;;;5087446;28;20453;-73
2021/07/03 02:16:50;;;;;;;41.17;30.77;;;12.40;99.90;;;;;;5082830;28;20822;-73
2021/07/03 02:19:19;;;;;;;46.43;32.80;;;12.30;99.90;;;;;;5085269;28;20477;-73
2021/07/03 02:21:46;;;;;;;38.73;34.03;;;12.30;99.90;;;;;;5087949;28;20477;-72
2021/07/03 02:24:13;;;;;;;42.73;34.37;;;12.30;99.90;;;;;;5078325;28;20674;-73
2021/07/03 02:26:40;;;;;;;44.80;33.63;;;12.30;99.90;;;;;;5087261;28;20497;-72
2021/07/03 02:29:07;;;;;;;40.53;34.63;;;12.30;99.90;;;;;;5079876;28;20468;-72
2021/07/03 02:31:36;;;;;;;33.03;29.73;;;12.30;99.90;;;;;;5086946;28;20544;-72
2021/07/03 02:34:04;;;;;;;33.07;29.77;;;12.20;99.90;;;;;;5084334;28;20462;-72
2021/07/03 02:36:31;;;;;;;32.70;29.30;;;12.20;99.90;;;;;;5087514;28;20487;-72
2021/07/03 02:38:58;;;;;;;34.00;30.37;;;12.20;99.90;;;;;;5087987;28;20450;-76
2021/07/03 02:41:26;;;;;;;39.33;32.57;;;12.20;99.90;;;;;;5089330;28;20462;-76
2021/07/03 02:43:53;;;;;;;35.13;31.40;;;12.10;99.90;;;;;;5088713;28;20454;-76
2021/07/03 02:46:20;;;;;;;38.10;30.83;;;12.20;99.90;;;;;;5087683;28;20855;-72
2021/07/03 02:48:48;;;;;;;39.77;29.87;;;12.10;99.90;;;;;;5087770;28;20465;-73
2021/07/03 02:51:15;;;;;;;39.10;31.10;;;12.10;99.90;;;;;;5087371;28;20470;-72
2021/07/03 02:53:42;;;;;;;36.53;30.70;;;12.10;99.90;;;;;;5083460;28;20462;-72
2021/07/03 02:56:09;;;;;;;34.93;30.70;;;12.10;99.90;;;;;;5087927;28;20561;-73
2021/07/03 02:58:36;;;;;;;35.23;30.33;;;12.10;99.90;;;;;;5084425;28;20469;-76
2021/07/03 03:01:03;;;;;;;36.47;32.30;;;12.00;99.90;;;;;;5083673;28;20462;-77
2021/07/03 03:03:30;;;;;;;33.17;29.50;;;12.00;99.90;;;;;;5085808;28;20454;-72
2021/07/03 03:06:00;;;;;;;35.47;30.97;;;12.00;99.90;;;;;;5080602;28;20577;-73
2021/07/03 03:08:26;;;;;;;33.97;30.80;;;12.10;99.90;;;;;;5087984;28;20465;-72
2021/07/03 03:10:53;;;;;;;33.73;30.40;;;12.10;99.90;;;;;;5085440;28;20459;-72
2021/07/03 03:13:21;;;;;;;36.80;30.03;;;12.10;99.90;;;;;;5087406;28;20458;-72
2021/07/03 03:15:48;;;;;;;34.07;30.17;;;12.00;99.90;;;;;;5086793;28;21044;-72
2021/07/03 03:18:15;;;;;;;40.73;32.10;;;12.00;99.90;;;;;;5078953;28;21014;-72
2021/07/03 03:20:42;;;;;;;38.07;32.50;;;12.00;99.90;;;;;;5083408;28;20476;-74
2021/07/03 03:23:10;;;;;;;35.03;31.40;;;12.10;99.90;;;;;;5086218;28;20479;-78
2021/07/03 03:25:38;;;;;;;40.17;32.40;;;12.10;99.90;;;;;;5088870;28;20482;-72
2021/07/03 03:28:05;;;;;;;47.30;34.40;;;12.10;99.90;;;;;;5081758;28;20469;-72
2021/07/03 03:30:32;;;;;;;38.67;34.57;;;12.10;99.90;;;;;;5078309;28;20460;-72
2021/07/03 03:32:59;;;;;;;42.70;36.33;;;12.10;99.90;;;;;;5077941;28;20465;-73
2021/07/03 03:35:26;;;;;;;46.70;37.53;;;12.20;99.90;;;;;;5080226;28;20541;-71
2021/07/03 03:37:53;;;;;;;48.60;36.80;;;12.20;99.90;;;;;;5080334;28;20525;-72
2021/07/03 03:40:22;;;;;;;50.00;37.57;;;12.40;99.90;;;;;;5083006;28;20454;-74
2021/07/03 03:42:49;;;;;;;45.70;38.77;;;12.50;99.90;;;;;;5076808;28;20988;-72
2021/07/03 03:45:16;;;;;;;62.13;40.93;;;12.50;99.90;;;;;;5077323;28;20491;-72
2021/07/03 03:47:43;;;;;;;47.03;38.23;;;12.60;99.90;;;;;;5083702;28;20463;-75
2021/07/03 03:50:11;;;;;;;53.37;40.33;;;12.70;99.90;;;;;;5087488;28;20480;-73
2021/07/03 03:52:38;;;;;;;56.97;40.07;;;12.80;99.90;;;;;;5078312;28;20474;-73
2021/07/03 03:55:07;;;;;;;48.37;40.37;;;12.90;99.90;;;;;;5082261;28;20461;-75
2021/07/03 03:57:35;;;;;;;54.50;43.00;;;13.00;99.90;;;;;;5082592;28;20462;-72
2021/07/03 04:00:04;;;;;;;53.77;39.10;;;13.00;99.90;;;;;;5083816;28;20550;-74
2021/07/03 04:02:31;;;;;;;54.43;40.80;;;13.10;99.90;;;;;;5083564;28;20458;-72
2021/07/03 04:04:58;;;;;;;55.80;41.63;;;13.10;99.90;;;;;;5086366;28;20838;-73
2021/07/03 04:07:25;;;;;;;49.80;38.60;;;13.20;99.90;;;;;;5086342;28;20457;-72
2021/07/03 04:09:53;;;;;;;58.33;43.27;;;13.30;99.90;;;;;;5086228;28;20473;-72
2021/07/03 04:12:20;;;;;;;52.10;40.20;;;13.30;99.90;;;;;;5084664;28;20462;-72
2021/07/03 04:14:49;;;;;;;52.80;41.10;;;13.40;99.90;;;;;;5080737;28;20455;-72
2021/07/03 04:17:16;;;;;;;55.17;40.53;;;13.40;99.90;;;;;;5083914;28;20469;-71
2021/07/03 04:19:44;;;;;;;50.97;42.30;;;13.40;99.90;;;;;;5079767;28;20450;-73
2021/07/03 04:22:10;;;;;;;52.13;38.73;;;13.50;99.90;;;;;;5085905;28;20458;-72
2021/07/03 04:24:37;;;;;;;47.73;40.30;;;13.60;99.90;;;;;;5084676;28;20458;-72
2021/07/03 04:27:05;;;;;;;51.17;41.07;;;13.60;99.90;;;;;;5085057;28;20512;-72
2021/07/03 04:29:32;;;;;;;54.87;41.37;;;13.60;99.90;;;;;;5083580;28;20461;-73
2021/07/03 04:32:01;;;;;;;59.60;42.60;;;13.70;99.90;;;;;;5082695;28;20461;-76
2021/07/03 04:34:28;;;;;;;48.00;40.63;;;13.80;99.90;;;;;;5083694;28;20503;-74
2021/07/03 04:36:56;;;;;;;50.37;39.97;;;13.90;99.90;;;;;;5084484;28;20481;-73
2021/07/03 04:39:23;;;;;;;57.63;39.90;;;14.00;99.90;;;;;;5077811;28;20977;-75
2021/07/03 04:41:50;;;;;;;46.83;37.80;;;14.10;99.90;;;;;;5085734;28;20458;-72
2021/07/03 04:44:18;;;;;;;57.20;41.00;;;14.20;99.90;;;;;;5081989;28;20462;-73
2021/07/03 04:46:45;;;;;;;56.90;43.60;;;14.30;99.90;;;;;;5086169;28;20705;-74
2021/07/03 04:49:14;;;;;;;74.50;42.00;;;14.40;99.90;;;;;;5086625;28;20454;-74
2021/07/03 04:51:43;;;;;;;50.70;40.63;;;14.60;99.90;;;;;;5085727;28;20469;-72
2021/07/03 04:54:10;;;;;;;52.90;41.20;;;14.70;99.90;;;;;;5085034;28;20742;-76
2021/07/03 04:56:37;;;;;;;50.80;42.77;;;14.80;99.90;;;;;;5080520;28;20946;-72
2021/07/03 04:59:03;;;;;;;53.80;41.30;;;14.80;99.90;;;;;;5079168;28;20451;-72
2021/07/03 05:01:30;;;;;;;56.33;40.97;;;14.90;99.90;;;;;;5082615;28;20467;-72
2021/07/03 05:03:57;;;;;;;58.43;43.03;;;14.90;99.90;;;;;;5081104;28;20462;-76
2021/07/03 05:06:25;;;;;;;52.17;40.07;;;15.00;99.90;;;;;;5080849;28;21232;-73
2021/07/03 05:08:52;;;;;;;58.67;40.83;;;15.00;99.90;;;;;;5082496;28;20451;-72
2021/07/03 05:11:19;;;;;;;55.13;37.87;;;15.10;99.90;;;;;;5084193;28;20456;-74
2021/07/03 05:13:46;;;;;;;52.73;40.33;;;15.10;99.90;;;;;;5084022;28;20813;-72
2021/07/03 05:16:13;;;;;;;48.77;37.80;;;15.20;99.90;;;;;;5082980;28;20465;-74
2021/07/03 05:18:41;;;;;;;50.33;39.63;;;15.20;99.90;;;;;;5086144;28;20454;-72
2021/07/03 05:21:08;;;;;;;49.73;37.97;;;15.30;99.90;;;;;;5085586;28;20549;-72
2021/07/03 05:23:36;;;;;;;49.30;38.83;;;15.40;99.90;;;;;;5082681;28;20472;-73
2021/07/03 05:26:04;;;;;;;43.93;39.23;;;15.50;99.90;;;;;;5083587;28;20858;-72
2021/07/03 05:28:32;;;;;;;40.80;36.13;;;15.60;99.90;;;;;;5083111;28;20454;-74
2021/07/03 05:30:59;;;;;;;52.73;38.60;;;15.80;99.90;;;;;;5081224;28;20460;-74
2021/07/03 05:33:26;;;;;;;45.47;37.93;;;15.90;99.90;;;;;;5083221;28;21101;-77
2021/07/03 05:35:52;;;;;;;42.13;36.10;;;16.00;99.90;;;;;;5078896;28;20486;-73
2021/07/03 05:38:19;;;;;;;43.37;36.90;;;16.10;99.90;;;;;;5083547;28;20472;-72
2021/07/03 05:40:49;;;;;;;48.03;36.87;;;16.20;99.90;;;;;;5083533;28;20458;-75
2021/07/03 05:43:16;;;;;;;45.40;38.77;;;16.30;99.90;;;;;;5087054;28;20460;-72
2021/07/03 05:45:42;;;;;;;45.23;36.77;;;16.40;99.90;;;;;;5085077;28;20462;-71
2021/07/03 05:48:09;;;;;;;40.10;35.77;;;16.40;99.90;;;;;;5083352;28;20549;-75
2021/07/03 05:50:37;;;;;;;42.70;37.57;;;16.50;99.90;;;;;;5086761;28;20457;-73
2021/07/03 05:53:04;;;;;;;42.03;35.73;;;16.50;99.90;;;;;;5089065;28;20858;-72
2021/07/03 05:55:31;;;;;;;41.77;36.03;;;16.60;99.90;;;;;;5089131;28;20474;-72
2021/07/03 05:57:59;;;;;;;41.30;36.17;;;16.70;99.90;;;;;;5090017;28;20458;-73
2021/07/03 06:00:26;;;;;;;55.47;36.77;;;16.70;99.90;;;;;;5088045;28;20952;-72
2021/07/03 06:02:53;;;;;;;38.03;34.23;;;16.90;99.90;;;;;;5084754;28;20469;-73
2021/07/03 06:05:19;;;;;;;36.43;32.67;;;17.00;99.90;;;;;;5085136;28;20541;-72
2021/07/03 06:07:47;;;;;;;37.20;33.37;;;17.00;99.90;;;;;;5089115;28;20482;-74
2021/07/03 06:10:14;;;;;;;39.53;33.40;;;17.10;99.90;;;;;;5087252;28;20599;-72
2021/07/03 06:12:43;;;;;;;34.30;30.63;;;17.20;99.90;;;;;;5087206;28;20488;-72
2021/07/03 06:15:12;;;;;;;36.67;32.70;;;17.20;99.90;;;;;;5088726;28;20501;-74
2021/07/03 06:17:39;;;;;;;35.83;31.57;;;17.40;99.90;;;;;;5088014;28;20454;-74
2021/07/03 06:20:09;;;;;;;34.10;30.50;;;17.50;99.90;;;;;;5084364;28;21011;-73
2021/07/03 06:22:36;;;;;;;34.60;30.90;;;17.60;99.90;;;;;;5089563;28;20486;-73
2021/07/03 06:25:04;;;;;;;37.33;29.97;;;17.70;99.90;;;;;;5088721;28;20465;-73
2021/07/03 06:27:32;;;;;;;41.83;27.43;;;17.90;99.90;;;;;;5085245;28;21108;-73
2021/07/03 06:29:59;;;;;;;31.80;28.40;;;18.10;99.90;;;;;;5082610;28;20548;-72
2021/07/03 06:32:27;;;;;;;29.83;26.97;;;18.20;99.90;;;;;;5087067;28;20464;-73
2021/07/03 06:34:54;;;;;;;30.10;26.33;;;18.40;99.90;;;;;;5085203;28;20454;-73
2021/07/03 06:37:21;;;;;;;32.13;27.10;;;18.50;99.90;;;;;;5080387;28;20474;-73
2021/07/03 06:39:48;;;;;;;30.73;27.67;;;18.70;99.90;;;;;;5081405;28;20451;-73
2021/07/03 06:42:16;;;;;;;31.17;27.60;;;18.80;99.90;;;;;;5079555;28;20500;-73
2021/07/03 06:44:45;;;;;;;30.80;27.60;;;18.90;99.90;;;;;;5080759;28;20761;-75
2021/07/03 06:47:12;;;;;;;30.93;26.63;;;19.00;99.90;;;;;;5082705;28;21127;-73
2021/07/03 06:49:41;;;;;;;27.47;24.70;;;19.10;99.90;;;;;;5081431;28;20462;-74
2021/07/03 06:52:09;;;;;;;28.27;25.40;;;19.30;99.90;;;;;;5076876;28;21027;-73
2021/07/03 06:54:36;;;;;;;30.57;26.17;;;19.30;99.90;;;;;;5076517;28;20490;-77
2021/07/03 06:57:03;;;;;;;26.03;23.37;;;19.50;99.90;;;;;;5079754;28;20470;-73
2021/07/03 06:59:33;;;;;;;26.63;24.27;;;19.70;99.90;;;;;;5085332;28;20552;-73
2021/07/03 07:02:00;;;;;;;27.67;24.43;;;19.80;99.90;;;;;;5082491;28;20462;-73
2021/07/03 07:04:27;;;;;;;27.47;24.57;;;20.00;99.90;;;;;;5084961;28;20470;-73
2021/07/03 07:06:58;;;;;;;27.40;24.70;;;20.20;99.90;;;;;;5086897;28;20478;-73
2021/07/03 07:09:26;;;;;;;28.23;25.17;;;20.40;99.90;;;;;;5086595;28;20473;-73
2021/07/03 07:11:56;;;;;;;26.30;23.90;;;20.40;99.90;;;;;;5087759;28;20844;-74
2021/07/03 07:14:23;;;;;;;26.17;23.90;;;20.50;99.90;;;;;;5086356;28;20465;-76
2021/07/03 07:16:50;;;;;;;26.40;24.07;;;20.60;99.90;;;;;;5081463;28;20474;-77
2021/07/03 07:19:17;;;;;;;26.73;24.13;;;20.70;99.90;;;;;;5083484;28;20530;-74
2021/07/03 07:21:44;;;;;;;30.07;25.60;;;20.90;99.90;;;;;;5080369;28;20476;-76
2021/07/03 07:24:12;;;;;;;29.23;23.63;;;21.00;99.90;;;;;;5085909;28;20458;-75
2021/07/03 07:26:39;;;;;;;25.03;22.80;;;21.00;99.90;;;;;;5086773;28;21042;-73
2021/07/03 07:29:06;;;;;;;24.00;22.10;;;21.30;99.90;;;;;;5088449;28;20692;-73
2021/07/03 07:31:34;;;;;;;26.27;23.77;;;21.40;99.90;;;;;;5085592;28;20476;-76
2021/07/03 07:34:01;;;;;;;25.30;23.07;;;21.60;99.90;;;;;;5086085;28;20555;-77
2021/07/03 07:36:28;;;;;;;25.80;23.13;;;21.70;99.90;;;;;;5086532;28;20520;-74
2021/07/03 07:38:55;;;;;;;25.10;22.83;;;21.90;99.90;;;;;;5086975;28;22877;-77
2021/07/03 07:41:23;;;;;;;23.80;21.57;;;21.90;99.90;;;;;;5086712;28;20453;-75
2021/07/03 07:43:50;;;;;;;24.17;21.63;;;22.10;99.90;;;;;;5088239;28;20470;-74
2021/07/03 07:46:17;;;;;;;22.50;20.60;;;22.30;99.90;;;;;;5087233;28;20960;-74
2021/07/03 07:48:44;;;;;;;28.70;21.57;;;22.40;99.90;;;;;;5085746;28;20461;-77
2021/07/03 07:51:11;;;;;;;23.63;21.23;;;22.50;99.90;;;;;;5085285;28;20686;-75
2021/07/03 07:53:38;;;;;;;27.17;22.47;;;22.60;99.90;;;;;;5082072;28;20454;-73
2021/07/03 07:56:06;;;;;;;23.87;21.20;;;22.90;99.90;;;;;;5086968;28;20461;-75
2021/07/03 07:58:34;;;;;;;25.27;21.67;;;22.80;99.90;;;;;;5086829;28;21023;-75
2021/07/03 08:01:01;;;;;;;27.90;20.80;;;23.10;99.90;;;;;;5084005;28;20492;-75
2021/07/03 08:03:28;;;;;;;23.90;21.97;;;23.30;99.90;;;;;;5080430;28;20457;-73
2021/07/03 08:05:55;;;;;;;24.10;22.00;;;23.30;99.90;;;;;;5086500;28;20836;-78
2021/07/03 08:08:21;;;;;;;24.13;21.63;;;23.70;99.90;;;;;;5084609;28;20490;-75
2021/07/03 08:10:48;;;;;;;22.37;20.57;;;24.30;99.90;;;;;;5086683;28;20466;-76
2021/07/03 08:13:15;;;;;;;24.20;21.80;;;25.00;99.90;;;;;;5081922;28;20462;-75
2021/07/03 08:15:44;;;;;;;22.23;20.53;;;25.50;99.90;;;;;;5085839;28;20454;-76
2021/07/03 08:18:11;;;;;;;24.60;22.00;;;26.10;99.90;;;;;;5081224;28;20563;-75
2021/07/03 08:20:38;;;;;;;24.83;22.73;;;27.00;99.90;;;;;;5073072;28;20458;-79
2021/07/03 08:23:05;;;;;;;25.00;22.90;;;27.30;99.90;;;;;;5074505;28;20451;-75
2021/07/03 08:25:32;;;;;;;24.17;22.13;;;27.50;99.90;;;;;;5080046;28;21047;-76
2021/07/03 08:27:59;;;;;;;24.60;22.40;;;28.10;99.90;;;;;;5084297;28;20525;-75
2021/07/03 08:30:27;;;;;;;25.77;23.17;;;28.50;99.90;;;;;;5085347;28;20672;-75
2021/07/03 08:32:55;;;;;;;25.30;22.23;;;28.30;99.90;;;;;;5085903;28;20464;-73
2021/07/03 08:35:22;;;;;;;23.40;21.43;;;28.20;99.90;;;;;;5086021;28;20462;-72
2021/07/03 08:37:49;;;;;;;21.77;19.87;;;28.90;99.90;;;;;;5084628;28;20477;-75
2021/07/03 08:40:17;;;;;;;23.03;21.13;;;29.50;99.90;;;;;;5081738;28;20454;-74
2021/07/03 08:42:44;;;;;;;21.90;20.20;;;29.30;99.90;;;;;;5082177;28;20466;-73
2021/07/03 08:45:12;;;;;;;23.00;20.97;;;29.80;99.90;;;;;;5078981;28;20457;-73
2021/07/03 08:47:40;;;;;;;23.93;21.77;;;30.40;99.90;;;;;;5074684;28;20528;-74
2021/07/03 08:50:12;;;;;;;23.10;20.70;;;29.90;99.90;;;;;;5078641;28;20466;-74
2021/07/03 08:52:39;;;;;;;20.77;19.20;;;30.80;99.90;;;;;;5076479;28;20839;-73
2021/07/03 08:55:16;;;;;;;20.90;19.37;;;31.20;99.90;;;;;;5077127;28;20462;-76
2021/07/03 08:57:46;;;;;;;21.77;20.17;;;31.20;99.90;;;;;;5080598;28;21026;-76
2021/07/03 09:00:15;;;;;;;21.43;19.40;;;31.20;99.90;;;;;;5073839;28;20991;-78
2021/07/03 09:02:44;;;;;;;21.40;19.60;;;31.60;99.90;;;;;;5075846;28;20462;-75
2021/07/03 09:05:20;;;;;;;20.13;18.73;;;32.00;99.40;;;;;;5078213;28;20472;-77
2021/07/03 09:07:48;;;;;;;22.57;20.67;;;31.90;99.70;;;;;;5082233;28;20854;-76
2021/07/03 09:10:20;;;;;;;20.93;19.13;;;31.60;98.80;;;;;;5080198;28;20605;-77
2021/07/03 09:12:49;;;;;;;22.17;19.87;;;31.40;98.80;;;;;;5080697;28;20466;-77
2021/07/03 09:15:18;;;;;;;21.43;19.67;;;31.80;99.20;;;;;;5079039;28;20489;-75
2021/07/03 09:17:47;;;;;;;19.87;18.40;;;32.30;98.00;;;;;;5079295;28;21618;-74
2021/07/03 09:20:14;;;;;;;20.60;19.27;;;32.60;97.80;;;;;;5081536;28;20970;-73
2021/07/03 09:22:42;;;;;;;20.30;19.00;;;31.90;95.20;;;;;;5077082;28;20458;-73
2021/07/03 09:25:19;;;;;;;18.93;17.70;;;32.10;96.30;;;;;;5075668;28;20462;-73
2021/07/03 09:27:46;;;;;;;20.63;19.13;;;32.20;97.10;;;;;;5084769;28;20839;-75
2021/07/03 09:30:15;;;;;;;19.93;18.50;;;32.60;95.20;;;;;;5084711;28;20568;-76
2021/07/03 09:32:49;;;;;;;20.60;19.20;;;33.20;94.50;;;;;;5085445;28;20880;-75
2021/07/03 09:35:16;;;;;;;20.80;19.07;;;33.20;94.80;;;;;;5086448;28;20518;-76
2021/07/03 09:37:45;;;;;;;21.53;20.03;;;33.50;94.40;;;;;;5084921;28;20568;-74
2021/07/03 09:40:12;;;;;;;20.27;18.77;;;33.90;92.20;;;;;;5082902;28;20460;-74
2021/07/03 09:42:40;;;;;;;19.67;18.27;;;31.30;94.30;;;;;;5082629;28;20497;-74
2021/07/03 09:45:10;;;;;;;18.90;17.50;;;31.80;93.80;;;;;;5083355;28;20462;-73
2021/07/03 09:47:37;;;;;;;20.30;18.97;;;32.60;94.10;;;;;;5085899;28;21002;-76
2021/07/03 09:50:06;;;;;;;19.57;18.37;;;33.20;93.00;;;;;;5085651;28;20473;-74
2021/07/03 09:52:34;;;;;;;17.63;16.77;;;33.60;92.10;;;;;;5082107;28;20462;-75
2021/07/03 09:55:03;;;;;;;18.17;17.10;;;34.20;88.20;;;;;;5082687;28;20748;-74
2021/07/03 09:57:30;;;;;;;17.27;16.27;;;33.50;86.30;;;;;;5082815;28;20498;-74
2021/07/03 09:59:57;;;;;;;17.87;16.97;;;33.60;88.20;;;;;;5083862;28;20462;-76
2021/07/03 10:02:24;;;;;;;17.80;16.87;;;31.70;86.10;;;;;;5078756;28;20464;-74
2021/07/03 10:04:50;;;;;;;17.60;16.40;;;31.50;87.10;;;;;;5082731;28;20480;-80
2021/07/03 10:07:23;;;;;;;17.13;16.10;;;32.50;89.20;;;;;;5084196;28;20561;-74
2021/07/03 10:09:53;;;;;;;16.77;15.87;;;33.20;83.30;;;;;;5081727;28;20463;-74
2021/07/03 10:12:28;;;;;;;17.30;16.30;;;34.20;84.50;;;;;;5082469;28;20468;-74
2021/07/03 10:14:56;;;;;;;17.30;16.30;;;35.30;82.70;;;;;;5081332;28;20460;-75
2021/07/03 10:17:24;;;;;;;16.33;15.53;;;35.40;76.30;;;;;;5082323;28;20472;-77
2021/07/03 10:19:52;;;;;;;17.00;15.93;;;35.50;74.00;;;;;;5081561;28;21164;-75
2021/07/03 10:22:21;;;;;;;19.60;18.23;;;35.10;76.90;;;;;;5075769;28;20463;-74
2021/07/03 10:24:52;;;;;;;16.90;15.77;;;34.30;77.10;;;;;;5082726;28;20462;-75
2021/07/03 10:27:22;;;;;;;16.63;15.73;;;33.90;78.20;;;;;;5082334;28;20815;-74
2021/07/03 10:29:53;;;;;;;17.70;16.70;;;34.70;73.60;;;;;;5082541;28;20496;-75
2021/07/03 10:32:22;;;;;;;16.83;15.93;;;34.80;72.00;;;;;;5080721;28;20767;-74
2021/07/03 10:34:50;;;;;;;16.60;15.80;;;34.10;74.50;;;;;;5078699;28;20485;-74
2021/07/03 10:37:30;;;;;;;16.23;15.43;;;34.20;73.80;;;;;;5078322;28;20488;-73
2021/07/03 10:42:29;;;;;;;15.87;15.07;;;33.80;67.80;;;;;;5028680;23;20907;-76
2021/07/03 10:45:07;;;;;;;16.10;15.20;;;32.50;67.20;;;;;;5016031;28;20468;-77
2021/07/03 10:47:35;;;;;;;15.83;14.97;;;32.60;68.40;;;;;;5025595;28;20488;-75
2021/07/03 10:50:02;;;;;;;15.73;14.93;;;33.60;69.70;;;;;;5021691;28;20742;-77
2021/07/03 10:52:40;;;;;;;16.07;14.97;;;33.10;67.30;;;;;;5029148;28;20464;-76
2021/07/03 10:55:08;;;;;;;15.93;15.13;;;33.40;67.60;;;;;;5027771;28;20456;-76
2021/07/03 10:57:43;;;;;;;16.37;15.37;;;34.50;64.30;;;;;;5024471;28;20467;-75
2021/07/03 11:00:13;;;;;;;16.60;15.80;;;34.70;65.80;;;;;;5024110;28;20463;-75
2021/07/03 11:02:40;;;;;;;15.70;14.90;;;34.30;65.90;;;;;;5023333;28;20465;-76
2021/07/03 11:05:13;;;;;;;16.30;15.30;;;34.10;66.30;;;;;;5027318;28;20469;-77
2021/07/03 11:07:42;;;;;;;15.40;14.60;;;33.50;66.80;;;;;;5029421;28;21107;-75
2021/07/03 11:10:11;;;;;;;15.43;14.60;;;33.70;65.90;;;;;;5019567;28;20535;-75
2021/07/03 11:12:47;;;;;;;17.27;16.37;;;34.30;64.60;;;;;;5021934;28;20465;-77
2021/07/03 11:15:18;;;;;;;16.53;15.03;;;34.70;66.10;;;;;;5018194;28;20472;-74
2021/07/03 11:17:45;;;;;;;16.37;15.47;;;34.80;64.40;;;;;;5022098;28;20945;-75
2021/07/03 11:20:23;;;;;;;16.93;16.13;;;34.30;65.40;;;;;;5022591;28;20465;-75
2021/07/03 11:22:51;;;;;;;16.30;15.50;;;34.10;65.00;;;;;;5019527;28;20496;-76
2021/07/03 11:25:26;;;;;;;15.30;14.60;;;34.70;67.00;;;;;;5020822;28;20492;-75
2021/07/03 11:41:05;;;;;;;16.57;15.67;;;35.50;63.10;;;;;;5113297;27;20615;-73
2021/07/03 11:43:32;;;;;;;16.83;15.63;;;33.90;66.20;;;;;;5061088;28;20474;-73
2021/07/03 11:46:02;;;;;;;16.40;15.60;;;34.50;67.40;;;;;;5062638;28;20459;-74
2021/07/03 11:48:30;;;;;;;15.20;14.40;;;34.10;65.40;;;;;;5065979;28;20495;-72
2021/07/03 11:50:58;;;;;;;18.10;17.00;;;33.70;66.20;;;;;;5064057;28;20553;-71
2021/07/03 11:53:27;;;;;;;15.73;14.83;;;33.50;66.60;;;;;;5064317;28;20585;-72
2021/07/03 11:55:56;;;;;;;15.70;14.80;;;33.20;68.50;;;;;;5063722;28;20825;-71
2021/07/03 11:58:26;;;;;;;16.30;15.50;;;32.60;72.20;;;;;;5059193;28;20840;-72
2021/07/03 12:00:55;;;;;;;16.20;15.20;;;32.70;70.20;;;;;;5063740;28;20482;-72
2021/07/03 12:03:25;;;;;;;17.10;16.20;;;32.40;76.00;;;;;;5062902;28;20468;-71
2021/07/03 12:05:53;;;;;;;15.97;14.97;;;32.20;74.70;;;;;;5064029;28;20490;-73
2021/07/03 12:08:21;;;;;;;15.53;14.43;;;32.40;71.40;;;;;;5062069;28;20462;-73
2021/07/03 12:10:50;;;;;;;15.83;14.83;;;33.10;72.20;;;;;;5061395;28;20462;-73
2021/07/03 12:13:22;;;;;;;16.37;15.47;;;33.80;69.00;;;;;;5061841;28;20470;-73
2021/07/03 12:16:03;;;;;;;16.30;15.40;;;34.60;66.50;;;;;;5060757;28;20995;-72
2021/07/03 12:18:32;;;;;;;16.53;15.53;;;33.70;65.80;;;;;;5062391;28;20467;-73
2021/07/03 12:21:08;;;;;;;16.73;15.73;;;33.70;69.50;;;;;;5055416;28;20477;-72
2021/07/03 12:23:35;;;;;;;17.07;16.07;;;33.20;69.50;;;;;;5056245;28;20960;-71
2021/07/03 12:26:03;;;;;;;17.70;16.50;;;32.90;70.40;;;;;;5058528;28;20467;-73
2021/07/03 12:28:30;;;;;;;16.10;15.30;;;32.50;72.60;;;;;;5061442;28;20617;-72
2021/07/03 12:31:07;;;;;;;16.80;15.97;;;32.40;71.30;;;;;;5065813;28;20455;-72
2021/07/03 12:33:35;;;;;;;16.57;15.57;;;32.60;72.50;;;;;;5065218;28;20472;-72
2021/07/03 12:36:05;;;;;;;16.00;15.10;;;33.20;68.80;;;;;;5060825;28;20459;-74
2021/07/03 12:38:32;;;;;;;16.87;15.53;;;33.60;69.40;;;;;;5055148;28;20557;-73
2021/07/03 12:41:03;;;;;;;15.90;15.00;;;34.20;70.80;;;;;;5056586;28;20459;-73
2021/07/03 12:43:32;;;;;;;15.93;14.90;;;34.50;67.90;;;;;;5047911;28;20522;-73
2021/07/03 12:46:00;;;;;;;18.13;16.80;;;34.50;68.40;;;;;;5051243;28;20460;-73
2021/07/03 12:48:35;;;;;;;16.17;15.37;;;34.20;69.30;;;;;;5047814;28;20463;-73